sensor_id;sensor_type;location;lat;lon;timestamp;temperature;humidity
42099;DHT22;27758;55.900;8.516;2023-04-24T00:01:14;9.20;99.90
42099;DHT22;27758;55.900;8.516;2023-04-24T00:03:40;9.20;99.90
42099;DHT22;27758;55.900;8.516;2023-04-24T00:06:06;9.20;99.90
42099;DHT22;27758;55.900;8.516;2023-04-24T00:08:34;9.20;99.90
42099;DHT22;27758;55.900;8.516;2023-04-24T00:11:00;9.20;99.90
42099;DHT22;27758;55.900;8.516;2023-04-24T00:13:26;9.20;99.90
42099;DHT22;27758;55.900;8.516;2023-04-24T00:15:54;9.10;99.90
42099;DHT22;27758;55.900;8.516;2023-04-24T00:18:20;9.10;99.90
42099;DHT22;27758;55.900;8.516;2023-04-24T00:20:46;9.10;99.90
42099;DHT22;27758;55.900;8.516;2023-04-24T00:23:12;9.10;99.90
42099;DHT22;27758;55.900;8.516;2023-04-24T00:25:37;9.10;99.90
42099;DHT22;27758;55.900;8.516;2023-04-24T00:28:03;9.10;99.90
42099;DHT22;27758;55.900;8.516;2023-04-24T00:30:29;9.10;99.90
42099;DHT22;27758;55.900;8.516;2023-04-24T00:32:55;9.10;99.90
42099;DHT22;27758;55.900;8.516;2023-04-24T00:35:20;9.10;99.90
42099;DHT22;27758;55.900;8.516;2023-04-24T00:37:46;9.20;99.90
42099;DHT22;27758;55.900;8.516;2023-04-24T00:40:12;9.20;99.90
42099;DHT22;27758;55.900;8.516;2023-04-24T00:42:39;9.20;99.90
42099;DHT22;27758;55.900;8.516;2023-04-24T00:45:05;9.30;99.90
42099;DHT22;27758;55.900;8.516;2023-04-24T00:47:33;9.30;99.90
42099;DHT22;27758;55.900;8.516;2023-04-24T00:50:04;9.30;99.90
42099;DHT22;27758;55.900;8.516;2023-04-24T00:52:30;9.30;99.90
42099;DHT22;27758;55.900;8.516;2023-04-24T00:54:58;9.30;99.90
42099;DHT22;27758;55.900;8.516;2023-04-24T00:57:24;9.30;99.90
42099;DHT22;27758;55.900;8.516;2023-04-24T00:59:52;9.30;99.90
42099;DHT22;27758;55.900;8.516;2023-04-24T01:02:17;9.40;99.90
42099;DHT22;27758;55.900;8.516;2023-04-24T01:04:44;9.40;99.90
42099;DHT22;27758;55.900;8.516;2023-04-24T01:07:10;9.50;99.90
42099;DHT22;27758;55.900;8.516;2023-04-24T01:09:40;9.50;99.90
42099;DHT22;27758;55.900;8.516;2023-04-24T01:12:09;9.50;99.90
42099;DHT22;27758;55.900;8.516;2023-04-24T01:14:34;9.60;99.90
42099;DHT22;27758;55.900;8.516;2023-04-24T01:17:00;9.60;99.90
42099;DHT22;27758;55.900;8.516;2023-04-24T01:19:27;9.60;99.90
42099;DHT22;27758;55.900;8.516;2023-04-24T01:21:54;9.60;99.90
42099;DHT22;27758;55.900;8.516;2023-04-24T01:24:22;9.60;99.90
42099;DHT22;27758;55.900;8.516;2023-04-24T01:26:48;9.60;99.90
42099;DHT22;27758;55.900;8.516;2023-04-24T01:29:14;9.60;99.90
42099;DHT22;27758;55.900;8.516;2023-04-24T01:31:40;9.70;99.90
42099;DHT22;27758;55.900;8.516;2023-04-24T01:34:06;9.70;99.90
42099;DHT22;27758;55.900;8.516;2023-04-24T01:36:33;9.70;99.90
42099;DHT22;27758;55.900;8.516;2023-04-24T01:39:00;9.70;99.90
42099;DHT22;27758;55.900;8.516;2023-04-24T01:41:26;9.70;99.90
42099;DHT22;27758;55.900;8.516;2023-04-24T01:43:52;9.70;99.90
42099;DHT22;27758;55.900;8.516;2023-04-24T01:46:19;9.70;99.90
42099;DHT22;27758;55.900;8.516;2023-04-24T01:48:45;9.70;99.90
42099;DHT22;27758;55.900;8.516;2023-04-24T01:51:11;9.60;99.90
42099;DHT22;27758;55.900;8.516;2023-04-24T01:53:36;9.60;99.90
42099;DHT22;27758;55.900;8.516;2023-04-24T01:56:02;9.60;99.90
42099;DHT22;27758;55.900;8.516;2023-04-24T01:58:28;9.60;99.90
42099;DHT22;27758;55.900;8.516;2023-04-24T02:00:56;9.70;99.90
42099;DHT22;27758;55.900;8.516;2023-04-24T02:03:25;9.60;99.90
42099;DHT22;27758;55.900;8.516;2023-04-24T02:05:51;9.70;99.90
42099;DHT22;27758;55.900;8.516;2023-04-24T02:08:17;9.70;99.90
42099;DHT22;27758;55.900;8.516;2023-04-24T02:10:43;9.70;99.90
42099;DHT22;27758;55.900;8.516;2023-04-24T02:13:08;9.70;99.90
42099;DHT22;27758;55.900;8.516;2023-04-24T02:15:34;9.80;99.90
42099;DHT22;27758;55.900;8.516;2023-04-24T02:18:01;9.80;99.90
42099;DHT22;27758;55.900;8.516;2023-04-24T02:20:27;9.80;99.90
42099;DHT22;27758;55.900;8.516;2023-04-24T02:22:52;9.80;99.90
42099;DHT22;27758;55.900;8.516;2023-04-24T02:25:18;9.80;99.90
42099;DHT22;27758;55.900;8.516;2023-04-24T02:27:44;9.80;99.90
42099;DHT22;27758;55.900;8.516;2023-04-24T02:30:10;9.80;99.90
42099;DHT22;27758;55.900;8.516;2023-04-24T02:32:36;9.80;99.90
42099;DHT22;27758;55.900;8.516;2023-04-24T02:35:01;9.80;99.90
42099;DHT22;27758;55.900;8.516;2023-04-24T02:37:27;9.80;99.90
42099;DHT22;27758;55.900;8.516;2023-04-24T02:39:53;9.80;99.90
42099;DHT22;27758;55.900;8.516;2023-04-24T02:42:18;9.80;99.90
42099;DHT22;27758;55.900;8.516;2023-04-24T02:44:44;9.80;99.90
42099;DHT22;27758;55.900;8.516;2023-04-24T02:47:10;9.80;99.90
42099;DHT22;27758;55.900;8.516;2023-04-24T02:49:35;9.90;99.90
42099;DHT22;27758;55.900;8.516;2023-04-24T02:52:01;9.90;99.90
42099;DHT22;27758;55.900;8.516;2023-04-24T02:54:27;9.90;99.90
42099;DHT22;27758;55.900;8.516;2023-04-24T02:56:52;9.90;99.90
42099;DHT22;27758;55.900;8.516;2023-04-24T02:59:18;9.80;99.90
42099;DHT22;27758;55.900;8.516;2023-04-24T03:01:44;9.90;99.90
42099;DHT22;27758;55.900;8.516;2023-04-24T03:04:09;9.80;99.90
42099;DHT22;27758;55.900;8.516;2023-04-24T03:06:35;9.80;99.90
42099;DHT22;27758;55.900;8.516;2023-04-24T03:09:01;9.90;99.90
42099;DHT22;27758;55.900;8.516;2023-04-24T03:11:27;9.90;99.90
42099;DHT22;27758;55.900;8.516;2023-04-24T03:13:53;9.90;99.90
42099;DHT22;27758;55.900;8.516;2023-04-24T03:16:19;9.90;99.90
42099;DHT22;27758;55.900;8.516;2023-04-24T03:18:44;9.90;99.90
42099;DHT22;27758;55.900;8.516;2023-04-24T03:21:10;9.90;99.90
42099;DHT22;27758;55.900;8.516;2023-04-24T03:23:36;9.80;99.90
42099;DHT22;27758;55.900;8.516;2023-04-24T03:26:02;9.90;99.90
42099;DHT22;27758;55.900;8.516;2023-04-24T03:28:28;9.90;99.90
42099;DHT22;27758;55.900;8.516;2023-04-24T03:30:53;9.90;99.90
42099;DHT22;27758;55.900;8.516;2023-04-24T03:33:19;9.80;99.90
42099;DHT22;27758;55.900;8.516;2023-04-24T03:35:45;9.90;99.90
42099;DHT22;27758;55.900;8.516;2023-04-24T03:38:11;9.80;99.90
42099;DHT22;27758;55.900;8.516;2023-04-24T03:40:36;9.70;99.90
42099;DHT22;27758;55.900;8.516;2023-04-24T03:43:02;9.70;99.90
42099;DHT22;27758;55.900;8.516;2023-04-24T03:45:28;9.70;99.90
42099;DHT22;27758;55.900;8.516;2023-04-24T03:47:53;9.70;99.90
42099;DHT22;27758;55.900;8.516;2023-04-24T03:50:19;9.70;99.90
42099;DHT22;27758;55.900;8.516;2023-04-24T03:52:45;9.70;99.90
42099;DHT22;27758;55.900;8.516;2023-04-24T03:55:11;9.70;99.90
42099;DHT22;27758;55.900;8.516;2023-04-24T03:57:40;9.70;99.90
42099;DHT22;27758;55.900;8.516;2023-04-24T04:00:06;9.60;99.90
42099;DHT22;27758;55.900;8.516;2023-04-24T04:02:32;9.60;99.90
42099;DHT22;27758;55.900;8.516;2023-04-24T04:04:58;9.60;99.90
42099;DHT22;27758;55.900;8.516;2023-04-24T04:07:23;9.60;99.90
42099;DHT22;27758;55.900;8.516;2023-04-24T04:09:49;9.60;99.90
42099;DHT22;27758;55.900;8.516;2023-04-24T04:12:15;9.60;99.90
42099;DHT22;27758;55.900;8.516;2023-04-24T04:14:41;9.60;99.90
42099;DHT22;27758;55.900;8.516;2023-04-24T04:17:06;9.60;99.90
42099;DHT22;27758;55.900;8.516;2023-04-24T04:19:32;9.60;99.90
42099;DHT22;27758;55.900;8.516;2023-04-24T04:21:58;9.60;99.90
42099;DHT22;27758;55.900;8.516;2023-04-24T04:24:24;9.60;99.90
42099;DHT22;27758;55.900;8.516;2023-04-24T04:26:54;9.60;99.90
42099;DHT22;27758;55.900;8.516;2023-04-24T04:29:23;9.60;99.90
42099;DHT22;27758;55.900;8.516;2023-04-24T04:31:49;9.60;99.90
42099;DHT22;27758;55.900;8.516;2023-04-24T04:34:15;9.70;99.90
42099;DHT22;27758;55.900;8.516;2023-04-24T04:36:41;9.70;99.90
42099;DHT22;27758;55.900;8.516;2023-04-24T04:39:07;9.70;99.90
42099;DHT22;27758;55.900;8.516;2023-04-24T04:41:33;9.70;99.90
42099;DHT22;27758;55.900;8.516;2023-04-24T04:44:01;9.70;99.90
42099;DHT22;27758;55.900;8.516;2023-04-24T04:46:27;9.80;99.90
42099;DHT22;27758;55.900;8.516;2023-04-24T04:48:53;9.80;99.90
42099;DHT22;27758;55.900;8.516;2023-04-24T04:51:19;9.70;99.90
42099;DHT22;27758;55.900;8.516;2023-04-24T04:53:45;9.80;99.90
42099;DHT22;27758;55.900;8.516;2023-04-24T04:56:11;9.90;99.90
42099;DHT22;27758;55.900;8.516;2023-04-24T04:58:37;9.90;99.90
42099;DHT22;27758;55.900;8.516;2023-04-24T05:01:03;9.90;99.90
42099;DHT22;27758;55.900;8.516;2023-04-24T05:03:28;10.00;99.90
42099;DHT22;27758;55.900;8.516;2023-04-24T05:05:54;10.00;99.90
42099;DHT22;27758;55.900;8.516;2023-04-24T05:08:20;9.90;99.90
42099;DHT22;27758;55.900;8.516;2023-04-24T05:10:45;10.00;99.90
42099;DHT22;27758;55.900;8.516;2023-04-24T05:13:11;10.10;99.90
42099;DHT22;27758;55.900;8.516;2023-04-24T05:15:37;10.10;99.90
42099;DHT22;27758;55.900;8.516;2023-04-24T05:18:02;10.10;99.90
42099;DHT22;27758;55.900;8.516;2023-04-24T05:20:28;10.20;99.90
42099;DHT22;27758;55.900;8.516;2023-04-24T05:22:54;10.20;99.90
42099;DHT22;27758;55.900;8.516;2023-04-24T05:25:19;10.20;99.90
42099;DHT22;27758;55.900;8.516;2023-04-24T05:27:45;10.20;99.90
42099;DHT22;27758;55.900;8.516;2023-04-24T05:30:12;10.30;99.90
42099;DHT22;27758;55.900;8.516;2023-04-24T05:32:37;10.20;99.90
42099;DHT22;27758;55.900;8.516;2023-04-24T05:35:03;10.30;99.90
42099;DHT22;27758;55.900;8.516;2023-04-24T05:37:29;10.30;99.90
42099;DHT22;27758;55.900;8.516;2023-04-24T05:39:55;10.30;99.90
42099;DHT22;27758;55.900;8.516;2023-04-24T05:42:20;10.40;99.90
42099;DHT22;27758;55.900;8.516;2023-04-24T05:44:46;10.50;99.90
42099;DHT22;27758;55.900;8.516;2023-04-24T05:47:12;10.50;99.90
42099;DHT22;27758;55.900;8.516;2023-04-24T05:49:37;10.50;99.90
42099;DHT22;27758;55.900;8.516;2023-04-24T05:52:03;10.50;99.90
42099;DHT22;27758;55.900;8.516;2023-04-24T05:54:30;10.50;99.90
42099;DHT22;27758;55.900;8.516;2023-04-24T05:56:56;10.50;99.90
42099;DHT22;27758;55.900;8.516;2023-04-24T05:59:22;10.50;99.90
42099;DHT22;27758;55.900;8.516;2023-04-24T06:01:48;10.50;99.90
42099;DHT22;27758;55.900;8.516;2023-04-24T06:04:13;10.50;99.90
42099;DHT22;27758;55.900;8.516;2023-04-24T06:06:39;10.50;99.90
42099;DHT22;27758;55.900;8.516;2023-04-24T06:09:05;10.50;99.90
42099;DHT22;27758;55.900;8.516;2023-04-24T06:11:32;10.60;99.90
42099;DHT22;27758;55.900;8.516;2023-04-24T06:13:57;10.60;99.90
42099;DHT22;27758;55.900;8.516;2023-04-24T06:16:23;10.70;99.90
42099;DHT22;27758;55.900;8.516;2023-04-24T06:18:49;10.60;99.90
42099;DHT22;27758;55.900;8.516;2023-04-24T06:21:16;10.60;99.90
42099;DHT22;27758;55.900;8.516;2023-04-24T06:23:42;10.60;99.90
42099;DHT22;27758;55.900;8.516;2023-04-24T06:26:07;10.60;99.90
42099;DHT22;27758;55.900;8.516;2023-04-24T06:28:33;10.60;99.90
42099;DHT22;27758;55.900;8.516;2023-04-24T06:30:59;10.70;99.90
42099;DHT22;27758;55.900;8.516;2023-04-24T06:33:24;10.70;99.90
42099;DHT22;27758;55.900;8.516;2023-04-24T06:35:50;10.70;99.90
42099;DHT22;27758;55.900;8.516;2023-04-24T06:38:16;10.80;99.90
42099;DHT22;27758;55.900;8.516;2023-04-24T06:40:41;10.70;99.90
42099;DHT22;27758;55.900;8.516;2023-04-24T06:43:07;10.80;99.90
42099;DHT22;27758;55.900;8.516;2023-04-24T06:45:33;10.90;99.90
42099;DHT22;27758;55.900;8.516;2023-04-24T06:47:58;10.80;99.90
42099;DHT22;27758;55.900;8.516;2023-04-24T06:50:24;10.80;99.90
42099;DHT22;27758;55.900;8.516;2023-04-24T06:52:50;10.80;99.90
42099;DHT22;27758;55.900;8.516;2023-04-24T06:55:17;10.90;99.90
42099;DHT22;27758;55.900;8.516;2023-04-24T06:57:43;10.90;99.90
42099;DHT22;27758;55.900;8.516;2023-04-24T07:00:10;10.90;99.90
42099;DHT22;27758;55.900;8.516;2023-04-24T07:02:36;10.90;99.90
42099;DHT22;27758;55.900;8.516;2023-04-24T07:05:03;10.90;99.90
42099;DHT22;27758;55.900;8.516;2023-04-24T07:07:29;10.90;99.90
42099;DHT22;27758;55.900;8.516;2023-04-24T07:09:55;11.00;99.90
42099;DHT22;27758;55.900;8.516;2023-04-24T07:12:21;11.00;99.90
42099;DHT22;27758;55.900;8.516;2023-04-24T07:14:47;11.00;99.90
42099;DHT22;27758;55.900;8.516;2023-04-24T07:17:13;11.00;99.90
42099;DHT22;27758;55.900;8.516;2023-04-24T07:19:39;11.10;99.90
42099;DHT22;27758;55.900;8.516;2023-04-24T07:22:05;11.10;99.90
42099;DHT22;27758;55.900;8.516;2023-04-24T07:24:31;11.10;99.90
42099;DHT22;27758;55.900;8.516;2023-04-24T07:27:00;11.10;99.90
42099;DHT22;27758;55.900;8.516;2023-04-24T07:29:28;11.10;99.90
42099;DHT22;27758;55.900;8.516;2023-04-24T07:31:54;11.10;99.90
42099;DHT22;27758;55.900;8.516;2023-04-24T07:34:20;11.10;99.90
42099;DHT22;27758;55.900;8.516;2023-04-24T07:36:46;11.10;99.90
42099;DHT22;27758;55.900;8.516;2023-04-24T07:39:11;11.20;99.90
42099;DHT22;27758;55.900;8.516;2023-04-24T07:41:37;11.20;99.90
42099;DHT22;27758;55.900;8.516;2023-04-24T07:44:03;11.20;99.90
42099;DHT22;27758;55.900;8.516;2023-04-24T07:46:30;11.20;99.90
42099;DHT22;27758;55.900;8.516;2023-04-24T07:48:55;11.30;99.90
42099;DHT22;27758;55.900;8.516;2023-04-24T07:51:21;11.30;99.90
42099;DHT22;27758;55.900;8.516;2023-04-24T07:53:47;11.40;99.90
42099;DHT22;27758;55.900;8.516;2023-04-24T07:56:13;11.40;99.90
42099;DHT22;27758;55.900;8.516;2023-04-24T07:58:38;11.50;99.90
42099;DHT22;27758;55.900;8.516;2023-04-24T08:01:04;11.60;99.90
42099;DHT22;27758;55.900;8.516;2023-04-24T08:03:30;11.60;99.90
42099;DHT22;27758;55.900;8.516;2023-04-24T08:05:56;11.70;99.90
42099;DHT22;27758;55.900;8.516;2023-04-24T08:08:22;11.80;99.90
42099;DHT22;27758;55.900;8.516;2023-04-24T08:10:48;11.90;99.90
42099;DHT22;27758;55.900;8.516;2023-04-24T08:13:14;12.00;99.90
42099;DHT22;27758;55.900;8.516;2023-04-24T08:15:40;12.00;99.90
42099;DHT22;27758;55.900;8.516;2023-04-24T08:18:05;12.10;99.90
42099;DHT22;27758;55.900;8.516;2023-04-24T08:20:32;12.20;99.90
42099;DHT22;27758;55.900;8.516;2023-04-24T08:22:57;12.20;99.90
42099;DHT22;27758;55.900;8.516;2023-04-24T08:25:23;12.20;99.90
42099;DHT22;27758;55.900;8.516;2023-04-24T08:27:50;12.20;99.90
42099;DHT22;27758;55.900;8.516;2023-04-24T08:30:16;12.10;99.90
42099;DHT22;27758;55.900;8.516;2023-04-24T08:32:42;12.00;99.90
42099;DHT22;27758;55.900;8.516;2023-04-24T08:35:08;12.00;99.90
42099;DHT22;27758;55.900;8.516;2023-04-24T08:37:35;12.10;99.90
42099;DHT22;27758;55.900;8.516;2023-04-24T08:40:35;12.20;99.90
42099;DHT22;27758;55.900;8.516;2023-04-24T08:42:56;12.20;99.90
42099;DHT22;27758;55.900;8.516;2023-04-24T08:45:23;12.20;99.90
42099;DHT22;27758;55.900;8.516;2023-04-24T08:47:49;12.40;99.90
42099;DHT22;27758;55.900;8.516;2023-04-24T08:50:15;12.40;99.90
42099;DHT22;27758;55.900;8.516;2023-04-24T08:52:42;12.30;99.90
42099;DHT22;27758;55.900;8.516;2023-04-24T08:55:08;12.30;99.90
42099;DHT22;27758;55.900;8.516;2023-04-24T08:57:36;12.30;99.90
42099;DHT22;27758;55.900;8.516;2023-04-24T09:00:04;12.20;99.90
42099;DHT22;27758;55.900;8.516;2023-04-24T09:02:30;12.30;99.90
42099;DHT22;27758;55.900;8.516;2023-04-24T09:04:57;12.50;99.90
42099;DHT22;27758;55.900;8.516;2023-04-24T09:07:25;12.50;99.90
42099;DHT22;27758;55.900;8.516;2023-04-24T09:09:53;12.60;99.90
42099;DHT22;27758;55.900;8.516;2023-04-24T09:12:19;12.60;99.90
42099;DHT22;27758;55.900;8.516;2023-04-24T09:14:46;12.50;99.90
42099;DHT22;27758;55.900;8.516;2023-04-24T09:17:13;12.50;99.90
42099;DHT22;27758;55.900;8.516;2023-04-24T09:19:39;12.60;99.90
42099;DHT22;27758;55.900;8.516;2023-04-24T09:22:06;12.80;99.90
42099;DHT22;27758;55.900;8.516;2023-04-24T09:24:33;12.90;99.90
42099;DHT22;27758;55.900;8.516;2023-04-24T09:26:59;12.80;99.90
42099;DHT22;27758;55.900;8.516;2023-04-24T09:29:27;12.60;99.90
42099;DHT22;27758;55.900;8.516;2023-04-24T09:31:53;12.50;99.90
42099;DHT22;27758;55.900;8.516;2023-04-24T09:34:23;12.40;99.90
42099;DHT22;27758;55.900;8.516;2023-04-24T09:36:49;12.30;99.90
42099;DHT22;27758;55.900;8.516;2023-04-24T09:39:16;12.20;99.90
42099;DHT22;27758;55.900;8.516;2023-04-24T09:41:53;12.20;99.90
42099;DHT22;27758;55.900;8.516;2023-04-24T09:44:21;12.30;99.90
42099;DHT22;27758;55.900;8.516;2023-04-24T09:49:27;12.40;99.90
42099;DHT22;27758;55.900;8.516;2023-04-24T09:52:03;12.60;99.90
42099;DHT22;27758;55.900;8.516;2023-04-24T09:54:29;13.00;99.90
42099;DHT22;27758;55.900;8.516;2023-04-24T09:56:55;13.30;99.90
42099;DHT22;27758;55.900;8.516;2023-04-24T09:59:22;13.40;99.90
42099;DHT22;27758;55.900;8.516;2023-04-24T10:01:48;13.70;99.90
42099;DHT22;27758;55.900;8.516;2023-04-24T10:06:48;14.30;99.90
42099;DHT22;27758;55.900;8.516;2023-04-24T10:09:18;14.70;99.90
42099;DHT22;27758;55.900;8.516;2023-04-24T10:11:47;14.50;99.90
42099;DHT22;27758;55.900;8.516;2023-04-24T10:14:19;14.40;99.90
42099;DHT22;27758;55.900;8.516;2023-04-24T10:16:46;14.10;99.90
42099;DHT22;27758;55.900;8.516;2023-04-24T10:19:15;13.90;99.90
42099;DHT22;27758;55.900;8.516;2023-04-24T10:21:43;13.50;99.90
42099;DHT22;27758;55.900;8.516;2023-04-24T10:24:18;13.30;99.90
42099;DHT22;27758;55.900;8.516;2023-04-24T10:26:46;13.20;99.90
42099;DHT22;27758;55.900;8.516;2023-04-24T10:29:15;13.10;99.90
42099;DHT22;27758;55.900;8.516;2023-04-24T10:31:41;13.10;99.90
42099;DHT22;27758;55.900;8.516;2023-04-24T10:34:08;13.20;99.90
42099;DHT22;27758;55.900;8.516;2023-04-24T10:36:35;13.30;99.90
42099;DHT22;27758;55.900;8.516;2023-04-24T10:39:05;13.40;99.90
42099;DHT22;27758;55.900;8.516;2023-04-24T10:41:32;13.60;99.90
42099;DHT22;27758;55.900;8.516;2023-04-24T10:44:16;13.50;99.90
42099;DHT22;27758;55.900;8.516;2023-04-24T10:46:46;13.30;99.90
42099;DHT22;27758;55.900;8.516;2023-04-24T10:49:15;13.30;99.90
42099;DHT22;27758;55.900;8.516;2023-04-24T10:51:51;13.40;99.90
42099;DHT22;27758;55.900;8.516;2023-04-24T10:59:48;13.80;99.90
42099;DHT22;27758;55.900;8.516;2023-04-24T11:02:15;13.70;99.90
42099;DHT22;27758;55.900;8.516;2023-04-24T11:04:41;13.70;99.90
42099;DHT22;27758;55.900;8.516;2023-04-24T11:07:11;13.80;99.90
42099;DHT22;27758;55.900;8.516;2023-04-24T11:09:37;14.00;99.90
42099;DHT22;27758;55.900;8.516;2023-04-24T11:12:07;14.00;99.90
42099;DHT22;27758;55.900;8.516;2023-04-24T11:17:30;14.00;99.90
42099;DHT22;27758;55.900;8.516;2023-04-24T11:20:11;14.00;99.90
42099;DHT22;27758;55.900;8.516;2023-04-24T11:22:40;14.10;99.90
42099;DHT22;27758;55.900;8.516;2023-04-24T11:25:06;14.10;99.90
42099;DHT22;27758;55.900;8.516;2023-04-24T11:27:42;14.30;99.90
42099;DHT22;27758;55.900;8.516;2023-04-24T11:30:10;14.50;99.90
42099;DHT22;27758;55.900;8.516;2023-04-24T11:32:40;14.40;99.90
42099;DHT22;27758;55.900;8.516;2023-04-24T11:37:38;14.50;99.90
42099;DHT22;27758;55.900;8.516;2023-04-24T11:40:05;14.40;99.90
42099;DHT22;27758;55.900;8.516;2023-04-24T11:42:35;14.50;99.90
42099;DHT22;27758;55.900;8.516;2023-04-24T11:45:01;14.40;99.90
42099;DHT22;27758;55.900;8.516;2023-04-24T11:47:32;14.40;99.90
42099;DHT22;27758;55.900;8.516;2023-04-24T11:50:01;14.30;99.90
42099;DHT22;27758;55.900;8.516;2023-04-24T11:52:28;14.20;99.90
42099;DHT22;27758;55.900;8.516;2023-04-24T11:54:54;14.10;99.90
42099;DHT22;27758;55.900;8.516;2023-04-24T11:57:24;14.00;99.90
42099;DHT22;27758;55.900;8.516;2023-04-24T11:59:52;14.10;99.90
42099;DHT22;27758;55.900;8.516;2023-04-24T12:04:47;14.40;99.90
42099;DHT22;27758;55.900;8.516;2023-04-24T12:07:12;14.50;99.90
42099;DHT22;27758;55.900;8.516;2023-04-24T12:12:12;14.10;99.90
42099;DHT22;27758;55.900;8.516;2023-04-24T12:14:52;13.90;99.90
42099;DHT22;27758;55.900;8.516;2023-04-24T12:17:23;13.70;99.90
42099;DHT22;27758;55.900;8.516;2023-04-24T12:19:49;13.60;99.90
42099;DHT22;27758;55.900;8.516;2023-04-24T12:22:16;13.50;99.90
42099;DHT22;27758;55.900;8.516;2023-04-24T12:25:01;13.30;99.90
42099;DHT22;27758;55.900;8.516;2023-04-24T12:27:34;13.10;99.90
42099;DHT22;27758;55.900;8.516;2023-04-24T12:30:01;13.00;99.90
42099;DHT22;27758;55.900;8.516;2023-04-24T12:32:27;13.10;99.90
42099;DHT22;27758;55.900;8.516;2023-04-24T12:34:54;13.10;99.90
42099;DHT22;27758;55.900;8.516;2023-04-24T12:37:21;13.30;99.90
42099;DHT22;27758;55.900;8.516;2023-04-24T12:40:09;13.30;99.90
42099;DHT22;27758;55.900;8.516;2023-04-24T12:42:49;13.30;99.90
42099;DHT22;27758;55.900;8.516;2023-04-24T12:45:16;13.40;99.90
42099;DHT22;27758;55.900;8.516;2023-04-24T12:47:43;13.50;99.90
42099;DHT22;27758;55.900;8.516;2023-04-24T12:50:11;13.70;99.90
42099;DHT22;27758;55.900;8.516;2023-04-24T12:52:39;13.80;99.90
42099;DHT22;27758;55.900;8.516;2023-04-24T12:55:06;13.90;99.90
42099;DHT22;27758;55.900;8.516;2023-04-24T12:57:34;13.90;99.90
42099;DHT22;27758;55.900;8.516;2023-04-24T13:00:01;13.80;99.90
42099;DHT22;27758;55.900;8.516;2023-04-24T13:02:28;13.70;99.90
42099;DHT22;27758;55.900;8.516;2023-04-24T13:04:55;13.50;99.90
42099;DHT22;27758;55.900;8.516;2023-04-24T13:07:21;13.40;99.90
42099;DHT22;27758;55.900;8.516;2023-04-24T13:09:48;13.50;99.90
42099;DHT22;27758;55.900;8.516;2023-04-24T13:12:14;13.60;99.90
42099;DHT22;27758;55.900;8.516;2023-04-24T13:14:42;13.60;99.90
42099;DHT22;27758;55.900;8.516;2023-04-24T13:17:07;13.70;99.90
42099;DHT22;27758;55.900;8.516;2023-04-24T13:19:39;13.70;99.90
42099;DHT22;27758;55.900;8.516;2023-04-24T13:22:06;13.60;99.90
42099;DHT22;27758;55.900;8.516;2023-04-24T13:24:32;13.60;99.90
42099;DHT22;27758;55.900;8.516;2023-04-24T13:26:58;13.50;99.90
42099;DHT22;27758;55.900;8.516;2023-04-24T13:29:26;13.50;99.90
42099;DHT22;27758;55.900;8.516;2023-04-24T13:31:53;13.40;99.90
42099;DHT22;27758;55.900;8.516;2023-04-24T13:34:21;13.30;99.90
42099;DHT22;27758;55.900;8.516;2023-04-24T13:36:46;13.30;99.90
42099;DHT22;27758;55.900;8.516;2023-04-24T13:39:12;13.10;99.90
42099;DHT22;27758;55.900;8.516;2023-04-24T13:41:38;13.00;99.90
42099;DHT22;27758;55.900;8.516;2023-04-24T13:44:05;12.90;99.90
42099;DHT22;27758;55.900;8.516;2023-04-24T13:46:31;12.70;99.90
42099;DHT22;27758;55.900;8.516;2023-04-24T13:48:57;12.60;99.90
42099;DHT22;27758;55.900;8.516;2023-04-24T13:51:24;12.50;99.90
42099;DHT22;27758;55.900;8.516;2023-04-24T13:53:53;12.40;99.90
42099;DHT22;27758;55.900;8.516;2023-04-24T13:56:19;12.30;99.90
42099;DHT22;27758;55.900;8.516;2023-04-24T13:58:45;12.30;99.90
42099;DHT22;27758;55.900;8.516;2023-04-24T14:01:12;12.30;99.90
42099;DHT22;27758;55.900;8.516;2023-04-24T14:03:38;12.20;99.90
42099;DHT22;27758;55.900;8.516;2023-04-24T14:06:04;12.20;99.90
42099;DHT22;27758;55.900;8.516;2023-04-24T14:08:32;12.30;99.90
42099;DHT22;27758;55.900;8.516;2023-04-24T14:10:57;12.20;99.90
42099;DHT22;27758;55.900;8.516;2023-04-24T14:13:23;12.30;99.90
42099;DHT22;27758;55.900;8.516;2023-04-24T14:15:49;12.20;99.90
42099;DHT22;27758;55.900;8.516;2023-04-24T14:18:15;12.20;99.90
42099;DHT22;27758;55.900;8.516;2023-04-24T14:20:41;12.20;99.90
42099;DHT22;27758;55.900;8.516;2023-04-24T14:23:06;12.20;99.90
42099;DHT22;27758;55.900;8.516;2023-04-24T14:25:32;12.20;99.90
42099;DHT22;27758;55.900;8.516;2023-04-24T14:27:58;12.20;99.90
42099;DHT22;27758;55.900;8.516;2023-04-24T14:30:24;12.20;99.90
42099;DHT22;27758;55.900;8.516;2023-04-24T14:32:49;12.10;99.90
42099;DHT22;27758;55.900;8.516;2023-04-24T14:35:15;12.10;99.90
42099;DHT22;27758;55.900;8.516;2023-04-24T14:37:41;12.10;99.90
42099;DHT22;27758;55.900;8.516;2023-04-24T14:40:07;12.10;99.90
42099;DHT22;27758;55.900;8.516;2023-04-24T14:42:34;12.10;99.90
42099;DHT22;27758;55.900;8.516;2023-04-24T14:45:01;12.10;99.90
42099;DHT22;27758;55.900;8.516;2023-04-24T14:47:26;12.10;99.90
42099;DHT22;27758;55.900;8.516;2023-04-24T14:49:52;12.10;99.90
42099;DHT22;27758;55.900;8.516;2023-04-24T14:52:18;12.00;99.90
42099;DHT22;27758;55.900;8.516;2023-04-24T14:54:45;12.00;99.90
42099;DHT22;27758;55.900;8.516;2023-04-24T14:57:10;12.00;99.90
42099;DHT22;27758;55.900;8.516;2023-04-24T14:59:36;12.00;99.90
42099;DHT22;27758;55.900;8.516;2023-04-24T15:02:02;11.90;99.90
42099;DHT22;27758;55.900;8.516;2023-04-24T15:04:28;11.80;99.90
42099;DHT22;27758;55.900;8.516;2023-04-24T15:06:55;11.70;99.90
42099;DHT22;27758;55.900;8.516;2023-04-24T15:09:24;11.60;99.90
42099;DHT22;27758;55.900;8.516;2023-04-24T15:11:51;11.50;99.90
42099;DHT22;27758;55.900;8.516;2023-04-24T15:14:17;11.50;99.90
42099;DHT22;27758;55.900;8.516;2023-04-24T15:16:43;11.50;99.90
42099;DHT22;27758;55.900;8.516;2023-04-24T15:19:10;11.40;99.90
42099;DHT22;27758;55.900;8.516;2023-04-24T15:21:37;11.40;99.90
42099;DHT22;27758;55.900;8.516;2023-04-24T15:24:03;11.30;99.90
42099;DHT22;27758;55.900;8.516;2023-04-24T15:26:29;11.20;99.90
42099;DHT22;27758;55.900;8.516;2023-04-24T15:28:55;11.20;99.90
42099;DHT22;27758;55.900;8.516;2023-04-24T15:31:21;11.10;99.90
42099;DHT22;27758;55.900;8.516;2023-04-24T15:33:48;11.00;99.90
42099;DHT22;27758;55.900;8.516;2023-04-24T15:36:15;11.10;99.90
42099;DHT22;27758;55.900;8.516;2023-04-24T15:38:43;11.10;99.90
42099;DHT22;27758;55.900;8.516;2023-04-24T15:41:09;11.00;99.90
42099;DHT22;27758;55.900;8.516;2023-04-24T15:43:35;11.00;99.90
42099;DHT22;27758;55.900;8.516;2023-04-24T15:46:03;11.00;99.90
42099;DHT22;27758;55.900;8.516;2023-04-24T15:48:29;11.00;99.90
42099;DHT22;27758;55.900;8.516;2023-04-24T15:50:55;11.00;99.90
42099;DHT22;27758;55.900;8.516;2023-04-24T15:53:21;11.00;99.90